Terminal Aerodrome Forecast
Issued by NWS

Home | Current Version | Previous Version | Text Only | Print | Product List | Glossary On
Versions: 1 2 3 4 5 6 7 8 9 10 11 12
000
FTUS46 KPDT 290541
TAFRDM
TAF
KRDM 290541Z 2906/3006 32008KT P6SM BKN070
     FM290800 17007KT P6SM SCT050 BKN100
     FM291500 32014G24KT P6SM -RA BKN040 OVC060
     FM292200 32012G22KT P6SM VCSH BKN050 BKN100
     FM300400 32010KT P6SM SCT050 BKN100=

USA.gov is the U.S. government's official web portal to all federal, state and local government web resources and services.